Time;durP1;ratioP1;P1;durP2;ratioP2;P2;SDS_P1;SDS_P2;PMS_P1;PMS_P2;Temp;Humidity;BMP_temperature;BMP_pressure;BME280_temperature;BME280_humidity;BME280_pressure;Samples;Min_cycle;Max_cycle;Signal;HPM_P1;HPM_P2
2022/01/15 00:00:30;;;;;;;32.57;11.87;;;;;;;0.83;87.95;103152.94;5051808;28;20423;-47
2022/01/15 00:02:57;;;;;;;32.17;12.83;;;;;;;0.82;88.79;103168.75;5051285;28;20467;-44
2022/01/15 00:05:26;;;;;;;29.80;12.07;;;;;;;0.80;88.66;103155.72;5051742;28;20434;-45
2022/01/15 00:07:54;;;;;;;41.20;12.43;;;;;;;0.79;89.00;103155.78;5051641;28;20427;-45
2022/01/15 00:10:26;;;;;;;41.17;12.97;;;;;;;0.78;88.85;103146.19;5051185;28;20439;-44
2022/01/15 00:12:54;;;;;;;29.47;13.13;;;;;;;0.78;88.92;103149.66;5050939;28;20480;-48
2022/01/15 00:15:26;;;;;;;23.13;11.97;;;;;;;0.81;88.35;103149.53;5051619;28;20431;-43
2022/01/15 00:17:59;;;;;;;18.53;11.13;;;;;;;0.79;88.25;103151.38;5051651;28;20440;-45
2022/01/15 00:20:29;;;;;;;36.27;13.83;;;;;;;0.80;87.95;103149.59;5051382;28;20431;-44
2022/01/15 00:22:59;;;;;;;25.27;12.13;;;;;;;0.81;87.43;103152.16;5050985;28;21328;-50
2022/01/15 00:25:28;;;;;;;25.73;11.47;;;;;;;0.82;86.79;103155.63;5051596;28;20438;-47
2022/01/15 00:27:56;;;;;;;31.27;11.83;;;;;;;0.83;87.16;103157.34;5051473;28;20442;-48
2022/01/15 00:30:25;;;;;;;27.83;11.83;;;;;;;0.79;88.01;103159.25;5051430;28;20430;-44
2022/01/15 00:32:53;;;;;;;24.00;11.97;;;;;;;0.77;88.57;103157.63;5050845;28;20479;-46
2022/01/15 00:35:23;;;;;;;36.33;13.00;;;;;;;0.75;88.48;103146.34;5051202;28;20453;-44
2022/01/15 00:37:53;;;;;;;27.20;10.80;;;;;;;0.72;89.01;103144.72;5051584;28;20798;-48
2022/01/15 00:40:21;;;;;;;30.57;13.00;;;;;;;0.71;88.86;103142.19;5051083;28;20942;-45
2022/01/15 00:42:49;;;;;;;28.47;12.63;;;;;;;0.71;88.48;103144.81;5050630;28;20463;-47
2022/01/15 00:45:21;;;;;;;20.00;10.77;;;;;;;0.72;87.88;103141.25;5042890;28;20434;-46
2022/01/15 00:47:50;;;;;;;30.73;11.87;;;;;;;0.72;88.19;103139.47;5051157;28;20850;-45
2022/01/15 00:50:18;;;;;;;23.40;11.43;;;;;;;0.72;88.41;103139.47;5051376;28;20427;-44
2022/01/15 00:52:46;;;;;;;29.23;11.70;;;;;;;0.70;88.74;103132.59;5050555;28;20486;-51
2022/01/15 00:55:16;;;;;;;21.67;11.40;;;;;;;0.69;88.53;103123.03;5051031;28;21088;-45
2022/01/15 00:57:43;;;;;;;19.60;10.80;;;;;;;0.67;88.39;103125.72;5051228;28;20440;-49
2022/01/15 01:00:15;;;;;;;36.67;11.63;;;;;;;0.67;88.92;103115.22;5051004;28;20436;-46
2022/01/15 01:02:42;;;;;;;19.07;11.47;;;;;;;0.66;88.53;103116.13;5049855;28;20467;-44
2022/01/15 01:05:11;;;;;;;21.50;10.87;;;;;;;0.66;88.40;103118.75;5054895;28;20442;-46
2022/01/15 01:07:39;;;;;;;28.70;12.80;;;;;;;0.64;88.82;103117.13;5054924;28;20435;-43
2022/01/15 01:10:23;;;;;;;30.47;13.00;;;;;;;0.62;89.05;103111.13;5054757;28;20438;-45
2022/01/15 01:13:15;;;;;;;19.90;10.30;;;;;;;0.60;89.93;103112.97;5054084;28;20471;-43
2022/01/15 01:24:15;;;;;;;20.80;10.30;;;;;;;0.46;91.29;103124.13;4997802;28;20441;-43
2022/01/15 01:26:47;;;;;;;21.83;11.00;;;;;;;0.41;91.06;103123.50;5054468;28;20439;-45
2022/01/15 01:29:27;;;;;;;30.23;12.50;;;;;;;0.35;91.76;103127.28;5054319;28;20439;-44
2022/01/15 01:32:01;;;;;;;27.07;12.10;;;;;;;0.28;91.62;103117.97;5053728;28;20823;-48
2022/01/15 01:34:31;;;;;;;29.70;12.73;;;;;;;0.23;92.08;103106.00;5054237;28;20479;-46
2022/01/15 01:37:05;;;;;;;27.77;12.30;;;;;;;0.22;91.09;103102.53;5054524;28;20440;-44
2022/01/15 01:39:42;;;;;;;37.73;13.20;;;;;;;0.22;91.35;103102.53;5054247;28;20431;-45
2022/01/15 01:42:27;;;;;;;26.90;13.27;;;;;;;0.22;90.62;103106.91;5053219;28;20498;-49
2022/01/15 01:45:07;;;;;;;29.67;12.60;;;;;;;0.22;90.49;103105.16;5045603;28;20927;-43
2022/01/15 01:47:41;;;;;;;30.90;13.20;;;;;;;0.22;90.68;103109.53;5034242;28;20455;-46
2022/01/15 01:50:12;;;;;;;16.90;11.03;;;;;;;0.19;90.51;103102.66;5034025;28;20436;-43
2022/01/15 01:52:40;;;;;;;23.27;11.03;;;;;;;0.14;91.33;103091.56;5033227;28;20468;-46
2022/01/15 01:55:08;;;;;;;28.83;12.23;;;;;;;0.11;91.58;103086.44;5033761;28;20983;-46
2022/01/15 01:57:36;;;;;;;28.37;12.17;;;;;;;0.10;91.12;103087.38;5034452;28;20440;-46
2022/01/15 02:00:08;;;;;;;34.33;14.20;;;;;;;0.11;90.44;103080.34;5033833;28;20454;-44
2022/01/15 02:02:36;;;;;;;29.47;14.53;;;;;;;0.11;90.51;103082.97;5033141;28;20643;-45
2022/01/15 02:05:05;;;;;;;34.23;12.50;;;;;;;0.13;90.11;103081.13;5033812;28;20795;-45
2022/01/15 02:07:32;;;;;;;26.50;13.20;;;;;;;0.16;89.86;103089.69;5047728;28;20443;-45
2022/01/15 02:10:00;;;;;;;35.60;13.70;;;;;;;0.20;89.73;103088.63;5053726;28;20516;-47
2022/01/15 02:12:27;;;;;;;26.17;14.00;;;;;;;0.25;88.89;103091.88;5052231;28;20982;-45
2022/01/15 02:14:55;;;;;;;33.80;13.90;;;;;;;0.29;88.73;103075.09;5053610;28;20834;-44
2022/01/15 02:17:24;;;;;;;25.90;12.03;;;;;;;0.37;87.66;103075.56;5053289;28;20431;-48
2022/01/15 02:25:20;;;;;;;23.63;10.40;;;;;;;0.59;86.46;103080.63;5053523;28;20936;-46
2022/01/15 02:27:47;;;;;;;24.13;13.00;;;;;;;0.65;86.02;103080.31;5053114;28;20435;-47
2022/01/15 02:30:15;;;;;;;23.30;11.17;;;;;;;0.72;85.59;103075.63;5053313;28;20446;-46
2022/01/15 02:32:42;;;;;;;24.03;10.83;;;;;;;0.76;85.90;103082.38;5052432;28;20459;-47
2022/01/15 02:35:14;;;;;;;17.83;11.47;;;;;;;0.78;86.47;103081.38;5053049;28;20502;-47
2022/01/15 02:37:41;;;;;;;31.90;10.80;;;;;;;0.83;86.65;103074.16;5053129;28;20440;-50
2022/01/15 02:40:12;;;;;;;20.67;11.00;;;;;;;0.88;86.28;103063.38;5052903;28;20439;-50
2022/01/15 02:42:40;;;;;;;18.60;11.40;;;;;;;0.94;85.66;103057.81;5052161;28;20817;-47
2022/01/15 02:45:08;;;;;;;25.90;10.43;;;;;;;0.99;85.31;103053.19;5044710;28;20426;-44
2022/01/15 02:50:23;;;;;;;19.00;10.60;;;;;;;1.14;84.14;103062.91;5052635;28;20435;-44
2022/01/15 02:52:50;;;;;;;30.43;12.00;;;;;;;1.19;84.02;103042.50;5052042;28;20463;-45
2022/01/15 02:55:18;;;;;;;24.47;11.10;;;;;;;1.25;83.78;103050.06;5052747;28;20829;-44
2022/01/15 02:57:46;;;;;;;23.43;11.00;;;;;;;1.31;83.03;103036.59;5052860;28;20435;-46
2022/01/15 03:00:14;;;;;;;31.30;12.60;;;;;;;1.39;82.61;103037.03;5052621;28;20437;-47
2022/01/15 03:02:42;;;;;;;26.13;11.10;;;;;;;1.46;82.28;103043.69;5051814;28;20471;-44
2022/01/15 03:05:11;;;;;;;17.87;11.10;;;;;;;1.53;82.00;103041.53;5052351;28;20930;-47
2022/01/15 03:07:40;;;;;;;19.33;12.13;;;;;;;1.59;81.96;103031.56;5052651;28;20444;-46
2022/01/15 03:10:09;;;;;;;19.53;9.90;;;;;;;1.66;82.18;103029.44;5052522;28;20446;-44
2022/01/15 03:12:37;;;;;;;25.43;11.73;;;;;;;1.74;82.62;103031.66;5051614;28;20470;-48
2022/01/15 03:15:07;;;;;;;18.87;10.17;;;;;;;1.77;83.40;103021.81;5052335;28;20474;-46
2022/01/15 03:17:36;;;;;;;19.63;10.60;;;;;;;1.81;83.79;103022.50;5052329;28;20953;-47
2022/01/15 03:20:06;;;;;;;27.03;13.10;;;;;;;1.85;84.30;103024.84;5052027;28;20439;-50
2022/01/15 03:22:33;;;;;;;21.10;11.57;;;;;;;1.88;84.93;103021.22;5051676;28;20471;-45
2022/01/15 03:25:02;;;;;;;11.33;9.17;;;;;;;1.91;84.76;103015.81;5051459;28;20430;-44
2022/01/15 03:27:30;;;;;;;15.37;10.90;;;;;;;1.95;85.16;103010.28;5052156;28;20435;-49
2022/01/15 03:29:58;;;;;;;20.67;11.10;;;;;;;2.00;85.54;103012.66;5052041;28;20432;-47
2022/01/15 03:32:25;;;;;;;13.37;10.87;;;;;;;2.03;86.49;103001.97;5051149;28;20497;-44
2022/01/15 03:34:53;;;;;;;11.63;10.33;;;;;;;2.05;86.79;103014.09;5052055;28;20472;-45
2022/01/15 03:37:21;;;;;;;17.30;10.67;;;;;;;2.07;87.64;103009.59;5052179;28;20439;-45
2022/01/15 03:39:48;;;;;;;17.53;9.60;;;;;;;2.10;87.98;102998.03;5051942;28;20428;-45
2022/01/15 03:42:17;;;;;;;23.47;11.37;;;;;;;2.10;88.83;103004.16;5051084;28;20466;-44
2022/01/15 03:44:48;;;;;;;16.00;11.57;;;;;;;2.11;89.52;103000.59;5043575;28;20428;-45
2022/01/15 03:47:17;;;;;;;26.90;10.60;;;;;;;2.13;89.47;103011.00;5051916;28;20526;-46
2022/01/15 03:49:45;;;;;;;19.20;10.20;;;;;;;2.13;90.50;103008.38;5052050;28;20465;-45
2022/01/15 03:52:12;;;;;;;21.93;9.40;;;;;;;2.15;90.44;103011.78;5051099;28;20546;-47
2022/01/15 03:54:41;;;;;;;11.67;8.77;;;;;;;2.15;91.02;102996.00;5051693;28;20485;-49
2022/01/15 03:57:09;;;;;;;12.13;8.70;;;;;;;2.15;91.47;103002.09;5051843;28;20431;-45
2022/01/15 03:59:38;;;;;;;15.17;9.63;;;;;;;2.15;91.43;103007.34;5051518;28;20435;-44
2022/01/15 04:02:05;;;;;;;14.83;10.97;;;;;;;2.15;91.92;103002.09;5051005;28;20464;-47
2022/01/15 04:04:33;;;;;;;21.60;9.90;;;;;;;2.12;92.46;103004.91;5051687;28;20455;-45
2022/01/15 04:07:02;;;;;;;18.47;10.47;;;;;;;2.13;92.25;103011.88;5051673;28;20539;-47
2022/01/15 04:09:30;;;;;;;21.63;10.30;;;;;;;2.14;92.59;103010.09;5051757;28;20438;-44
2022/01/15 04:11:57;;;;;;;14.00;10.23;;;;;;;2.14;92.51;103005.69;5050691;28;20554;-48
2022/01/15 04:14:25;;;;;;;27.43;9.40;;;;;;;2.12;93.21;103002.25;5051570;28;20428;-46
2022/01/15 04:16:54;;;;;;;23.90;10.00;;;;;;;2.12;93.38;103001.44;5051605;28;20443;-44
2022/01/15 04:19:22;;;;;;;21.57;9.13;;;;;;;2.11;93.34;102997.97;5051630;28;20432;-46
2022/01/15 04:21:49;;;;;;;28.47;9.57;;;;;;;2.10;93.72;103005.91;5050803;28;20470;-47
2022/01/15 04:24:20;;;;;;;18.07;9.50;;;;;;;2.08;94.48;103013.06;5051660;28;20454;-44
2022/01/15 04:26:47;;;;;;;24.70;10.70;;;;;;;2.03;94.93;103008.03;5051593;28;20792;-46
2022/01/15 04:29:15;;;;;;;15.20;8.90;;;;;;;2.02;94.90;103003.75;5051525;28;20433;-45
2022/01/15 04:31:47;;;;;;;24.10;9.63;;;;;;;2.01;94.97;103001.19;5050712;28;20467;-46
2022/01/15 04:34:19;;;;;;;22.43;10.27;;;;;;;2.00;94.36;102994.25;5051397;28;20428;-47
2022/01/15 04:36:47;;;;;;;17.13;8.23;;;;;;;1.99;94.73;102998.66;5054970;28;20471;-45
2022/01/15 04:39:15;;;;;;;27.03;10.37;;;;;;;1.98;94.34;102998.72;5055178;28;20457;-47
2022/01/15 04:41:43;;;;;;;29.87;9.20;;;;;;;1.99;94.60;103003.06;5054512;28;20473;-45
2022/01/15 04:44:11;;;;;;;16.40;8.73;;;;;;;1.99;94.60;103003.06;5047042;28;20439;-47
2022/01/15 04:46:39;;;;;;;30.17;10.67;;;;;;;2.00;94.28;103002.94;5055089;28;20428;-44
2022/01/15 04:49:07;;;;;;;13.20;8.93;;;;;;;2.01;94.38;102998.53;5055159;28;20458;-45
2022/01/15 04:51:37;;;;;;;16.47;9.07;;;;;;;2.01;94.65;102998.53;5054277;28;20471;-47
2022/01/15 04:54:05;;;;;;;13.93;9.50;;;;;;;1.98;94.88;102990.81;5055201;28;20450;-45
2022/01/15 04:56:32;;;;;;;15.07;9.73;;;;;;;1.95;95.13;103010.28;5054984;28;20482;-45
2022/01/15 04:59:00;;;;;;;13.73;8.13;;;;;;;1.93;95.15;103003.41;5054971;28;20431;-46
2022/01/15 05:01:28;;;;;;;12.20;9.37;;;;;;;1.92;94.93;103001.69;5054317;28;20452;-45
2022/01/15 05:03:56;;;;;;;19.70;9.90;;;;;;;1.89;95.30;103007.97;5054727;28;20435;-44
2022/01/15 05:06:23;;;;;;;17.03;9.03;;;;;;;1.86;95.45;103000.25;5054660;28;20431;-47
2022/01/15 05:09:02;;;;;;;18.53;10.03;;;;;;;1.83;95.74;102994.31;5054858;28;20439;-44
2022/01/15 05:11:32;;;;;;;16.87;10.50;;;;;;;1.77;95.77;102992.03;5054028;28;20834;-46
2022/01/15 05:14:00;;;;;;;16.20;12.23;;;;;;;1.69;95.74;102987.19;5054722;28;20427;-46
2022/01/15 05:16:28;;;;;;;17.70;10.50;;;;;;;1.62;95.87;102997.19;5054355;28;20470;-44
2022/01/15 05:18:55;;;;;;;20.00;11.13;;;;;;;1.53;96.05;102989.81;5054906;28;20436;-48
2022/01/15 05:21:23;;;;;;;17.57;10.37;;;;;;;1.47;96.78;102986.66;5054005;28;20827;-45
2022/01/15 05:23:50;;;;;;;14.30;8.87;;;;;;;1.40;96.73;102986.16;5054473;28;20777;-44
2022/01/15 05:26:19;;;;;;;12.40;9.13;;;;;;;1.31;96.26;102988.44;5054394;28;20946;-45
2022/01/15 05:28:47;;;;;;;13.27;9.50;;;;;;;1.25;96.36;102988.78;5054208;28;20435;-44
2022/01/15 05:31:15;;;;;;;13.10;8.83;;;;;;;1.16;96.53;102986.63;5053418;28;21001;-45
2022/01/15 05:33:43;;;;;;;14.30;9.60;;;;;;;1.10;96.30;102991.28;5054319;28;20427;-44
2022/01/15 05:36:11;;;;;;;15.27;9.90;;;;;;;1.03;96.46;102992.53;5054348;28;20474;-46
2022/01/15 05:38:39;;;;;;;18.73;9.63;;;;;;;0.98;96.49;102983.19;5054198;28;20427;-48
2022/01/15 05:41:06;;;;;;;19.70;10.20;;;;;;;0.92;96.66;102978.25;5053470;28;20458;-47
2022/01/15 05:43:36;;;;;;;19.47;10.37;;;;;;;0.88;96.31;102976.72;5048684;28;20456;-47
2022/01/15 05:46:03;;;;;;;16.03;9.30;;;;;;;0.84;96.48;102975.16;5051143;28;20939;-47
2022/01/15 05:48:31;;;;;;;16.73;9.30;;;;;;;0.83;96.40;102974.34;5053400;28;20975;-45
2022/01/15 05:50:59;;;;;;;28.90;11.07;;;;;;;0.82;96.15;102966.53;5053358;28;20431;-47
2022/01/15 05:53:26;;;;;;;12.60;9.60;;;;;;;0.78;96.11;102971.06;5053927;28;20555;-46
2022/01/15 05:55:54;;;;;;;17.63;10.00;;;;;;;0.72;96.49;102973.19;5053896;28;20471;-49
2022/01/15 05:58:21;;;;;;;11.10;9.43;;;;;;;0.66;96.11;102981.38;5053642;28;20431;-44
2022/01/15 06:00:50;;;;;;;9.87;8.90;;;;;;;0.61;95.99;102970.25;5052952;28;20439;-49
2022/01/15 06:03:18;;;;;;;13.13;8.33;;;;;;;0.56;95.89;102973.13;5053778;28;20498;-46
2022/01/15 06:05:46;;;;;;;21.10;10.37;;;;;;;0.52;96.24;102975.06;5053796;28;20792;-49
2022/01/15 06:08:13;;;;;;;16.97;8.30;;;;;;;0.46;96.02;102975.34;5053536;28;20446;-45
2022/01/15 06:10:41;;;;;;;12.67;8.93;;;;;;;0.41;96.59;102981.78;5053176;28;20955;-44
2022/01/15 06:13:09;;;;;;;16.40;9.67;;;;;;;0.38;96.36;102974.91;5053363;28;20454;-46
2022/01/15 06:15:36;;;;;;;28.40;13.13;;;;;;;0.36;96.26;102973.28;5053453;28;20438;-45
2022/01/15 06:18:05;;;;;;;14.60;10.80;;;;;;;0.34;95.66;102969.88;5052030;28;20439;-44
2022/01/15 06:20:33;;;;;;;22.73;10.70;;;;;;;0.32;96.12;102964.72;5053296;28;20458;-46
2022/01/15 06:23:00;;;;;;;20.37;10.77;;;;;;;0.31;96.09;102970.03;5052738;28;20467;-44
2022/01/15 06:25:28;;;;;;;9.97;9.00;;;;;;;0.29;95.93;102969.25;5053135;28;20432;-46
2022/01/15 06:27:56;;;;;;;15.03;7.90;;;;;;;0.25;95.44;102971.19;5053479;28;20813;-46
2022/01/15 06:30:23;;;;;;;18.47;10.33;;;;;;;0.24;96.10;102964.22;5052906;28;20438;-46
2022/01/15 06:32:51;;;;;;;19.50;9.40;;;;;;;0.21;96.17;102963.53;5052079;28;20562;-44
2022/01/15 06:35:21;;;;;;;26.53;10.47;;;;;;;0.21;95.37;102969.63;5053134;28;20432;-49
2022/01/15 06:37:49;;;;;;;23.27;10.33;;;;;;;0.21;95.59;102964.38;5051173;28;20475;-44
2022/01/15 06:40:17;;;;;;;13.20;9.50;;;;;;;0.21;95.18;102971.41;5053079;28;20431;-44
2022/01/15 06:42:45;;;;;;;11.20;7.97;;;;;;;0.22;94.82;102968.69;5052119;28;20471;-44
2022/01/15 06:45:13;;;;;;;14.63;9.80;;;;;;;0.25;94.99;102967.69;5044342;28;20946;-44
2022/01/15 06:47:40;;;;;;;13.63;8.93;;;;;;;0.29;94.09;102975.34;5052476;28;20435;-47
2022/01/15 06:50:09;;;;;;;32.17;10.30;;;;;;;0.33;94.38;102974.25;5051863;28;20442;-44
2022/01/15 06:52:39;;;;;;;11.80;8.70;;;;;;;0.39;93.87;102975.72;5051626;28;20485;-45
2022/01/15 06:55:09;;;;;;;14.50;10.00;;;;;;;0.45;93.53;102983.28;5051961;28;20424;-44
2022/01/15 06:57:37;;;;;;;13.77;10.70;;;;;;;0.47;93.71;102977.06;5051502;28;20471;-44
2022/01/15 07:00:06;;;;;;;14.63;9.40;;;;;;;0.50;93.78;102979.53;5051967;28;20427;-44
2022/01/15 07:02:34;;;;;;;16.40;8.83;;;;;;;0.52;93.98;102977.66;5051654;28;20464;-45
2022/01/15 07:05:01;;;;;;;14.53;9.60;;;;;;;0.57;93.22;102985.31;5052380;28;20439;-44
2022/01/15 07:07:29;;;;;;;17.47;9.77;;;;;;;0.57;93.93;102975.66;5050863;28;20806;-45
2022/01/15 07:09:58;;;;;;;16.73;11.37;;;;;;;0.60;93.27;102973.81;5050395;28;20427;-49
2022/01/15 07:12:26;;;;;;;19.80;9.77;;;;;;;0.61;93.29;102972.88;5050801;28;20459;-44
2022/01/15 07:14:54;;;;;;;11.70;8.07;;;;;;;0.61;93.58;102978.13;5050281;28;20458;-45
2022/01/15 07:17:22;;;;;;;17.47;9.23;;;;;;;0.62;93.56;102971.97;5052109;28;20482;-44
2022/01/15 07:19:51;;;;;;;17.47;9.33;;;;;;;0.60;93.96;102965.94;5052097;28;20436;-45
2022/01/15 07:22:19;;;;;;;15.50;9.00;;;;;;;0.59;93.85;102954.59;5051567;28;20471;-44
2022/01/15 07:24:46;;;;;;;15.57;10.27;;;;;;;0.56;94.60;102952.13;5051898;28;20431;-45
2022/01/15 07:27:15;;;;;;;12.13;8.93;;;;;;;0.52;95.15;102948.78;5052166;28;20822;-44
2022/01/15 07:29:43;;;;;;;9.60;8.60;;;;;;;0.47;95.20;102955.22;5051023;28;20440;-45
2022/01/15 07:32:10;;;;;;;12.23;9.30;;;;;;;0.44;94.87;102952.75;5051156;28;20827;-49
2022/01/15 07:34:38;;;;;;;16.93;9.77;;;;;;;0.39;95.17;102952.09;5052136;28;20431;-44
2022/01/15 07:37:06;;;;;;;18.97;12.60;;;;;;;0.33;95.40;102948.00;5051513;28;20485;-45
2022/01/15 07:39:35;;;;;;;9.80;8.90;;;;;;;0.31;95.87;102954.28;5051817;28;20866;-45
2022/01/15 07:42:03;;;;;;;19.57;13.40;;;;;;;0.26;96.00;102945.78;5050803;28;20478;-44
2022/01/15 07:44:32;;;;;;;23.70;12.13;;;;;;;0.22;95.97;102955.59;5042715;28;20435;-45
2022/01/15 07:47:00;;;;;;;19.37;11.13;;;;;;;0.18;95.92;102956.66;5044990;28;20436;-44
2022/01/15 07:49:27;;;;;;;11.37;8.77;;;;;;;0.17;95.91;102957.59;5046572;28;20432;-46
2022/01/15 07:51:55;;;;;;;13.73;10.20;;;;;;;0.16;95.54;102953.25;5041449;28;20464;-44
2022/01/15 07:54:23;;;;;;;22.60;11.27;;;;;;;0.15;95.64;102958.59;5049868;28;20977;-44
2022/01/15 07:56:54;;;;;;;12.73;9.40;;;;;;;0.17;95.42;102954.13;5050660;28;20985;-49
2022/01/15 07:59:22;;;;;;;19.73;9.33;;;;;;;0.18;94.80;102956.66;5051194;28;20428;-46
2022/01/15 08:01:51;;;;;;;19.77;11.23;;;;;;;0.20;95.26;102951.34;5050943;28;20482;-45
2022/01/15 08:04:19;;;;;;;19.00;11.37;;;;;;;0.23;94.86;102953.81;5051758;28;20501;-46
2022/01/15 08:06:46;;;;;;;24.83;11.40;;;;;;;0.26;94.25;102944.03;5051392;28;20467;-47
2022/01/15 08:09:14;;;;;;;11.00;9.90;;;;;;;0.28;94.58;102942.16;5051312;28;20435;-44
2022/01/15 08:11:42;;;;;;;13.03;9.73;;;;;;;0.30;94.76;102936.84;5050366;28;20546;-46
2022/01/15 08:14:09;;;;;;;15.40;9.57;;;;;;;0.34;94.63;102944.47;5051037;28;20435;-47
2022/01/15 08:16:37;;;;;;;15.67;9.40;;;;;;;0.35;95.01;102945.31;5026998;28;20474;-48
2022/01/15 08:19:06;;;;;;;13.57;8.60;;;;;;;0.38;94.81;102948.66;5051353;28;20439;-48
2022/01/15 08:21:34;;;;;;;16.57;10.40;;;;;;;0.40;94.59;102944.16;5050937;28;20439;-45
2022/01/15 08:24:01;;;;;;;23.80;11.20;;;;;;;0.45;94.29;102939.53;5026501;28;20455;-44
2022/01/15 08:26:29;;;;;;;12.80;9.40;;;;;;;0.49;94.69;102951.56;5051524;28;20431;-44
2022/01/15 08:28:57;;;;;;;14.80;10.17;;;;;;;0.54;93.96;102946.94;5051373;28;20806;-46
2022/01/15 08:31:24;;;;;;;25.20;12.10;;;;;;;0.59;94.34;102953.72;5051351;28;20435;-46
2022/01/15 08:33:52;;;;;;;19.13;10.83;;;;;;;0.63;94.23;102955.28;5051480;28;20439;-48
2022/01/15 08:36:22;;;;;;;24.40;11.77;;;;;;;0.65;94.52;102953.41;5050923;28;20447;-47
2022/01/15 08:38:49;;;;;;;13.87;9.83;;;;;;;0.72;94.54;102952.19;5051114;28;20485;-48
2022/01/15 08:41:25;;;;;;;10.17;9.17;;;;;;;0.76;94.21;102943.19;5050704;28;20545;-48
2022/01/15 08:43:52;;;;;;;17.77;9.77;;;;;;;0.83;93.98;102939.34;5043228;28;20443;-49
2022/01/15 08:46:20;;;;;;;20.60;10.83;;;;;;;0.87;94.63;102940.84;5050485;28;20454;-48
2022/01/15 08:48:49;;;;;;;19.63;10.00;;;;;;;0.91;94.42;102943.25;5051342;28;20434;-47
2022/01/15 08:51:16;;;;;;;16.10;9.87;;;;;;;0.98;93.98;102943.78;5050555;28;20435;-44
2022/01/15 08:53:45;;;;;;;14.83;10.20;;;;;;;1.02;93.79;102934.78;5051346;28;20427;-45
2022/01/15 08:56:13;;;;;;;15.37;9.60;;;;;;;1.09;93.76;102938.78;5050094;28;20474;-45
2022/01/15 08:58:40;;;;;;;19.77;10.07;;;;;;;1.15;94.11;102933.22;5051057;28;20478;-49
2022/01/15 09:01:13;;;;;;;12.93;10.27;;;;;;;1.21;94.30;102924.16;5050758;28;20436;-51
2022/01/15 09:03:42;;;;;;;21.20;14.07;;;;;;;1.28;93.83;102923.75;5050790;28;20443;-47
2022/01/15 09:06:09;;;;;;;17.67;13.07;;;;;;;1.36;93.50;102928.56;5050720;28;20459;-45
2022/01/15 09:08:37;;;;;;;16.90;11.90;;;;;;;1.43;94.09;102933.44;5050769;28;20429;-49
2022/01/15 09:11:06;;;;;;;14.33;11.37;;;;;;;1.53;93.10;102933.75;5050315;28;20522;-46
2022/01/15 09:13:34;;;;;;;21.20;12.30;;;;;;;1.63;93.45;102941.06;5050737;28;20457;-48
2022/01/15 09:16:02;;;;;;;23.00;13.93;;;;;;;1.75;93.41;102936.03;5050550;28;20978;-45
2022/01/15 09:18:30;;;;;;;18.03;12.13;;;;;;;1.86;93.18;102923.97;5066490;23;20566;-45
2022/01/15 09:20:58;;;;;;;20.80;12.80;;;;;;;1.96;93.16;102929.56;5050710;28;20997;-46
2022/01/15 09:23:25;;;;;;;26.07;14.80;;;;;;;2.08;93.23;102923.59;5053680;28;20435;-46
2022/01/15 09:25:53;;;;;;;38.90;16.73;;;;;;;2.17;93.33;102923.91;5053857;28;20465;-49
2022/01/15 09:31:07;;;;;;;17.43;11.37;;;;;;;2.39;93.48;102926.09;5053982;28;20435;-46
2022/01/15 09:33:35;;;;;;;15.93;14.00;;;;;;;2.52;93.58;102921.81;5053937;28;20435;-47
2022/01/15 09:36:03;;;;;;;26.87;15.27;;;;;;;2.64;93.93;102920.22;5053733;28;20467;-44
2022/01/15 09:38:32;;;;;;;26.70;19.47;;;;;;;2.74;93.84;102913.47;5053660;28;20479;-45
2022/01/15 09:40:59;;;;;;;26.50;19.47;;;;;;;2.87;94.20;102926.75;5053330;28;20938;-44
2022/01/15 09:43:29;;;;;;;29.50;18.87;;;;;;;2.99;94.31;102925.97;5049953;28;20943;-45
2022/01/15 09:45:59;;;;;;;34.37;23.17;;;;;;;3.06;94.92;102917.59;5049651;28;20463;-47
2022/01/15 09:48:29;;;;;;;26.33;17.77;;;;;;;3.13;95.22;102916.28;5053388;28;20785;-44
2022/01/15 09:50:58;;;;;;;36.50;22.73;;;;;;;3.23;95.13;102921.81;5053741;28;20438;-45
2022/01/15 09:53:26;;;;;;;23.77;17.30;;;;;;;3.30;95.64;102921.34;5052602;28;20451;-46
2022/01/15 09:55:54;;;;;;;33.97;16.63;;;;;;;3.40;96.02;102919.00;5051772;28;20474;-46
2022/01/15 09:58:21;;;;;;;20.87;14.00;;;;;;;3.47;95.94;102908.88;5053705;28;20471;-45
2022/01/15 10:00:50;;;;;;;17.33;13.93;;;;;;;3.56;95.93;102916.19;5053489;28;20438;-44
2022/01/15 10:03:19;;;;;;;13.40;12.03;;;;;;;3.58;96.47;102915.19;5053803;28;20428;-48
2022/01/15 10:05:48;;;;;;;15.90;12.10;;;;;;;3.66;96.56;102910.25;5053229;28;20462;-47
2022/01/15 10:08:20;;;;;;;13.97;11.73;;;;;;;3.72;96.61;102909.00;5053237;28;20892;-45
2022/01/15 10:10:49;;;;;;;16.77;11.03;;;;;;;3.79;96.27;102903.19;5053528;28;20436;-45
2022/01/15 10:13:19;;;;;;;14.03;11.50;;;;;;;3.86;96.78;102909.78;5053655;28;20427;-45
2022/01/15 10:15:50;;;;;;;16.50;10.83;;;;;;;3.94;96.62;102906.66;5051973;28;22234;-49
2022/01/15 10:18:21;;;;;;;16.00;10.50;;;;;;;4.03;96.69;102902.56;5053173;28;21079;-46
2022/01/15 10:20:48;;;;;;;18.83;12.23;;;;;;;4.10;96.77;102907.31;5053052;28;20423;-47
2022/01/15 10:23:17;;;;;;;24.33;12.13;;;;;;;4.18;96.68;102899.72;5053575;28;20427;-44
2022/01/15 10:25:45;;;;;;;14.87;11.80;;;;;;;4.26;95.92;102893.94;5052753;28;20525;-44
2022/01/15 10:28:13;;;;;;;20.23;12.53;;;;;;;4.36;96.33;102898.47;5053185;28;20443;-45
2022/01/15 10:30:44;;;;;;;16.27;11.77;;;;;;;4.45;96.23;102892.56;5052613;28;20431;-46
2022/01/15 10:33:12;;;;;;;13.93;11.30;;;;;;;4.54;96.00;102895.56;5052813;28;20960;-45
2022/01/15 10:35:42;;;;;;;18.17;11.23;;;;;;;4.61;95.77;102896.81;5051218;28;20459;-45
2022/01/15 10:38:11;;;;;;;15.23;11.50;;;;;;;4.70;95.86;102894.38;5051924;28;20482;-46
2022/01/15 10:40:40;;;;;;;18.30;11.80;;;;;;;4.75;95.34;102888.81;5051714;28;20437;-45
2022/01/15 10:43:09;;;;;;;13.67;12.10;;;;;;;4.80;95.79;102890.16;5051494;28;20481;-44
2022/01/15 10:45:48;;;;;;;15.87;11.87;;;;;;;4.81;94.89;102883.06;5045465;28;20486;-44
2022/01/15 10:48:21;;;;;;;16.50;10.90;;;;;;;4.87;95.00;102872.91;5052757;28;21029;-44
2022/01/15 10:50:58;;;;;;;14.33;11.57;;;;;;;4.99;94.70;102873.84;5052814;28;20441;-45
2022/01/15 10:53:35;;;;;;;19.53;11.73;;;;;;;5.05;94.23;102870.75;5052764;28;20848;-46
2022/01/15 10:56:03;;;;;;;12.67;10.47;;;;;;;5.13;94.31;102870.22;5051941;28;20459;-46
2022/01/15 10:58:31;;;;;;;20.70;12.27;;;;;;;5.14;93.42;102869.28;5052328;28;20921;-45
2022/01/15 11:00:59;;;;;;;17.20;10.73;;;;;;;5.21;93.40;102867.88;5051861;28;20947;-45
2022/01/15 11:03:36;;;;;;;16.47;12.13;;;;;;;5.25;92.78;102866.69;5052622;28;20428;-45
2022/01/15 11:06:06;;;;;;;16.23;10.87;;;;;;;5.30;92.70;102864.56;5051943;28;20459;-45
2022/01/15 11:08:36;;;;;;;11.83;10.63;;;;;;;5.34;92.29;102860.75;5052249;28;20448;-45
2022/01/15 11:11:06;;;;;;;16.93;11.30;;;;;;;5.43;92.40;102855.63;5052578;28;20443;-45
2022/01/15 11:13:35;;;;;;;18.30;11.73;;;;;;;5.50;91.72;102864.78;5051933;28;20921;-50
2022/01/15 11:16:08;;;;;;;17.37;10.50;;;;;;;5.55;92.01;102860.00;5051971;28;20459;-45
2022/01/15 11:18:41;;;;;;;13.20;9.33;;;;;;;5.62;91.98;102856.91;5052208;28;21051;-45
2022/01/15 11:21:11;;;;;;;16.10;11.40;;;;;;;5.65;91.70;102849.59;5051414;28;20450;-49
2022/01/15 11:23:41;;;;;;;12.93;9.90;;;;;;;5.70;92.07;102850.13;5050541;28;20427;-45
2022/01/15 11:26:11;;;;;;;23.00;11.73;;;;;;;5.75;91.51;102844.47;5051411;28;20467;-50
2022/01/15 11:28:41;;;;;;;23.00;11.43;;;;;;;5.77;91.11;102845.19;5051565;28;20451;-48
2022/01/15 11:31:11;;;;;;;19.07;10.20;;;;;;;5.82;91.68;102848.34;5051775;28;20959;-47
2022/01/15 11:33:41;;;;;;;17.53;10.93;;;;;;;5.80;90.75;102839.66;5052028;28;20442;-44
2022/01/15 11:36:28;;;;;;;17.90;10.40;;;;;;;5.76;90.03;102839.06;5051217;28;21015;-44
2022/01/15 11:38:57;;;;;;;24.83;12.17;;;;;;;5.74;90.15;102843.63;5051781;28;20479;-45
2022/01/15 11:41:48;;;;;;;20.43;13.07;;;;;;;5.76;90.01;102843.50;5051074;28;20427;-48
2022/01/15 11:44:18;;;;;;;20.00;12.07;;;;;;;5.74;90.01;102840.13;5038298;28;20804;-44
2022/01/15 11:46:49;;;;;;;18.37;11.23;;;;;;;5.75;89.54;102839.16;5051740;28;20430;-46